createdAt,value
2018-03-22T20:08:01.621Z,83.20
2018-03-22T20:10:29.919Z,83.70
2018-03-22T20:12:58.189Z,83.80
2018-03-22T20:15:26.575Z,83.80
2018-03-22T20:17:54.809Z,84.00
2018-03-22T20:20:23.861Z,84.20
2018-03-22T20:22:52.148Z,84.20
2018-03-22T20:25:20.424Z,84.00
2018-03-22T20:27:48.691Z,84.00
2018-03-22T20:30:16.986Z,83.90
2018-03-22T20:32:45.302Z,84.00
2018-03-22T20:35:14.333Z,84.50
2018-03-22T20:37:43.009Z,84.50
2018-03-22T20:40:11.308Z,84.40
2018-03-22T20:42:39.582Z,84.50
2018-03-22T20:45:07.895Z,84.60
2018-03-22T20:47:36.191Z,84.60
2018-03-22T20:50:04.535Z,84.80
2018-03-22T20:52:33.564Z,84.90
2018-03-22T20:55:01.855Z,84.90
2018-03-22T20:57:30.122Z,84.80
2018-03-22T20:59:58.418Z,84.90
2018-03-22T21:02:26.722Z,85.10
2018-03-22T21:04:55.779Z,84.90
2018-03-22T21:07:24.073Z,84.90
2018-03-22T21:09:52.373Z,84.90
2018-03-22T21:12:20.656Z,85.80
2018-03-22T21:14:48.970Z,85.10
2018-03-22T21:17:17.235Z,85.20
2018-03-22T21:19:45.520Z,85.40
2018-03-22T21:22:13.804Z,85.20
2018-03-22T21:24:42.089Z,85.30
2018-03-22T21:27:10.382Z,85.20
2018-03-22T21:29:38.692Z,85.40
2018-03-22T21:32:06.980Z,85.30
2018-03-22T21:34:35.281Z,85.40
2018-03-22T21:37:03.548Z,85.40
2018-03-22T21:39:31.842Z,85.40
2018-03-22T21:42:05.234Z,85.40
2018-03-22T21:44:32.753Z,85.50
2018-03-22T21:47:12.894Z,85.50
2018-03-22T21:49:40.406Z,85.50
2018-03-22T21:55:08.745Z,85.80
2018-03-22T21:57:36.320Z,85.80
2018-03-22T22:00:04.599Z,85.90
2018-03-22T22:02:32.145Z,85.80
2018-03-22T22:05:00.514Z,85.50
2018-03-22T22:07:28.245Z,85.50
2018-03-22T22:09:55.761Z,85.90
2018-03-22T22:12:24.065Z,86.00
2018-03-22T22:14:51.589Z,86.00
2018-03-22T22:17:19.120Z,85.70
2018-03-22T22:19:46.640Z,85.90
2018-03-22T22:22:14.174Z,85.80
2018-03-22T22:24:41.685Z,85.90
2018-03-22T22:27:09.221Z,86.00
2018-03-22T22:29:36.748Z,86.10
2018-03-22T22:32:04.301Z,86.20
2018-03-22T22:34:31.821Z,86.20
2018-03-22T22:37:00.156Z,86.50
2018-03-22T22:39:27.914Z,86.40
2018-03-22T22:41:55.453Z,86.50
2018-03-22T22:44:22.993Z,86.50
2018-03-22T22:46:50.538Z,86.50
2018-03-22T22:49:18.084Z,86.50
2018-03-22T22:51:45.625Z,86.10
2018-03-22T22:54:13.143Z,86.20
2018-03-22T22:56:40.678Z,86.20
2018-03-22T22:59:08.221Z,86.40
2018-03-22T23:01:36.538Z,86.40
2018-03-22T23:04:04.060Z,86.30
2018-03-22T23:06:32.353Z,86.40
2018-03-22T23:08:59.873Z,86.30
2018-03-22T23:11:28.194Z,86.10
2018-03-22T23:13:55.727Z,86.10
2018-03-22T23:16:24.015Z,86.20
2018-03-22T23:18:51.540Z,86.20
2018-03-22T23:21:19.071Z,86.40
2018-03-22T23:23:46.606Z,86.80
2018-03-22T23:26:14.137Z,86.60
2018-03-22T23:28:41.673Z,86.80
2018-03-22T23:31:09.185Z,86.70
2018-03-22T23:33:36.724Z,86.50
2018-03-22T23:36:04.245Z,87.00
2018-03-22T23:38:31.781Z,87.30
2018-03-22T23:40:59.303Z,87.20
2018-03-22T23:43:26.833Z,87.30
2018-03-22T23:45:54.353Z,87.30
2018-03-22T23:48:21.894Z,87.40
2018-03-22T23:50:49.409Z,87.20
2018-03-22T23:53:17.712Z,87.50
2018-03-22T23:55:45.224Z,87.50
2018-03-22T23:58:13.539Z,87.40
